Time;durP1;ratioP1;P1;durP2;ratioP2;P2;SDS_P1;SDS_P2;PMS_P1;PMS_P2;Temp;Humidity;BMP_temperature;BMP_pressure;BME280_temperature;BME280_humidity;BME280_pressure;Samples;Min_cycle;Max_cycle;Signal;HPM_P1;HPM_P2
2022/02/03 00:02:07;;;;;;;15.80;10.55;;;;;;;5.31;81.13;97309.81;5092200;28;20048;-74
2022/02/03 00:04:47;;;;;;;18.83;12.35;;;;;;;5.34;80.88;97308.75;5092165;28;20059;-74
2022/02/03 00:07:21;;;;;;;17.80;12.43;;;;;;;5.34;80.39;97312.13;5091623;28;20060;-74
2022/02/03 00:10:07;;;;;;;14.25;9.90;;;;;;;5.35;80.99;97318.94;5091700;28;20093;-74
2022/02/03 00:24:11;;;;;;;17.83;9.85;;;;;;;5.27;80.79;97311.03;5092189;28;20056;-75
2022/02/03 00:26:45;;;;;;;12.82;8.82;;;;;;;5.29;81.51;97316.91;5091856;28;20067;-74
2022/02/03 00:29:30;;;;;;;20.02;10.77;;;;;;;5.31;80.80;97319.34;5091769;28;20047;-74
2022/02/03 00:32:06;;;;;;;15.05;10.30;;;;;;;5.29;80.62;97316.91;5091810;28;20048;-74
2022/02/03 00:34:44;;;;;;;13.15;9.85;;;;;;;5.28;80.74;97315.25;5091547;28;20056;-74
2022/02/03 00:37:27;;;;;;;14.68;9.95;;;;;;;5.32;81.51;97321.78;5091330;28;20052;-75
2022/02/03 00:48:22;;;;;;;15.85;10.13;;;;;;;5.27;81.36;97316.22;5095547;28;20055;-74
2022/02/03 00:50:52;;;;;;;16.17;10.93;;;;;;;5.28;80.85;97317.84;5095392;28;20052;-74
2022/02/03 00:53:23;;;;;;;18.27;10.95;;;;;;;5.29;80.86;97313.47;5095415;28;20498;-75
2022/02/03 00:55:54;;;;;;;13.95;9.93;;;;;;;5.29;81.24;97316.06;5095077;28;20047;-75
2022/02/03 00:58:25;;;;;;;14.57;9.55;;;;;;;5.32;81.40;97313.22;5095384;28;20476;-75
2022/02/03 01:01:00;;;;;;;20.13;9.80;;;;;;;5.33;80.76;97313.06;5095336;28;20051;-74
2022/02/03 01:03:29;;;;;;;16.40;9.07;;;;;;;5.33;81.22;97315.66;5095138;28;20048;-75
2022/02/03 01:05:59;;;;;;;13.35;9.05;;;;;;;5.34;80.94;97312.13;5094512;28;20048;-75
2022/02/03 01:08:30;;;;;;;14.27;8.98;;;;;;;5.36;81.00;97312.81;5094779;28;20048;-75
2022/02/03 01:11:06;;;;;;;13.45;8.50;;;;;;;5.36;80.49;97306.84;5093832;28;20109;-75
2022/02/03 01:13:42;;;;;;;13.35;8.57;;;;;;;5.32;80.48;97301.09;5092964;28;20048;-74
2022/02/03 01:16:19;;;;;;;12.77;8.57;;;;;;;5.32;81.20;97308.84;5092584;28;20719;-75
2022/02/03 01:19:16;;;;;;;14.13;8.93;;;;;;;5.35;81.35;97316.34;5092970;28;20044;-75
2022/02/03 01:44:20;;;;;;;34.00;15.93;;;;;;;5.35;80.72;97297.44;5094940;28;20052;-75
2022/02/03 01:46:57;;;;;;;31.00;15.15;;;;;;;5.29;81.21;97288.44;5094333;28;20052;-75
2022/02/03 01:51:38;;;;;;;33.08;13.88;;;;;;;5.26;81.67;97293.03;5094039;28;20051;-75
2022/02/03 01:52:31;;;;;;;31.63;15.43;;;;;;;5.22;81.69;97287.31;5093952;28;20501;-75
2022/02/03 01:54:59;;;;;;;33.15;15.48;;;;;;;5.21;81.84;97290.84;5093982;28;20044;-75
2022/02/03 01:57:35;;;;;;;39.47;17.58;;;;;;;5.20;81.88;97286.63;5093735;28;20523;-75
2022/02/03 02:00:08;;;;;;;43.20;18.55;;;;;;;5.21;82.29;97290.03;5093779;28;20044;-75
2022/02/03 02:02:39;;;;;;;49.15;20.42;;;;;;;5.21;82.13;97285.69;5094170;28;20052;-75
2022/02/03 02:05:10;;;;;;;39.47;18.45;;;;;;;5.22;82.54;97286.50;5094141;28;20059;-75
2022/02/03 02:07:52;;;;;;;45.78;19.98;;;;;;;5.23;82.29;97282.97;5094184;28;20051;-75
2022/02/03 02:10:45;;;;;;;32.95;14.57;;;;;;;5.22;82.26;97282.13;5093978;28;20048;-75
2022/02/03 02:13:38;;;;;;;22.70;11.18;;;;;;;5.21;82.88;97279.69;5093931;28;20052;-75
2022/02/03 02:16:35;;;;;;;21.33;10.57;;;;;;;5.21;82.54;97280.50;5131551;22;20051;-82
2022/02/03 02:19:15;;;;;;;31.88;14.93;;;;;;;5.21;82.30;97277.94;5120582;28;20103;-79
2022/02/03 02:38:55;;;;;;;33.22;15.15;;;;;;;5.19;83.04;97255.72;5118116;28;20043;-80
2022/02/03 02:44:29;;;;;;;35.45;14.88;;;;;;;5.17;83.45;97255.84;5118322;28;20056;-77
2022/02/03 02:46:57;;;;;;;36.42;17.00;;;;;;;5.16;82.92;97254.22;5118261;28;20044;-78
2022/02/03 02:49:28;;;;;;;30.38;13.18;;;;;;;5.16;83.20;97256.81;5121124;28;20055;-81
2022/02/03 02:52:02;;;;;;;31.92;15.10;;;;;;;5.15;83.32;97255.97;5121327;28;20051;-80
2022/02/03 02:54:51;;;;;;;31.63;14.93;;;;;;;5.16;83.71;97252.47;5119806;28;20039;-79
2022/02/03 03:03:28;;;;;;;23.67;12.77;;;;;;;5.15;83.16;97240.47;5075326;28;20593;-78
2022/02/03 03:31:32;;;;;;;8.20;5.85;;;;;;;5.28;83.27;97229.06;5119599;28;20055;-78
2022/02/03 03:34:10;;;;;;;7.93;5.38;;;;;;;5.31;83.90;97229.63;5119272;28;20501;-78
2022/02/03 03:36:41;;;;;;;7.85;5.90;;;;;;;5.33;83.65;97216.53;5118978;28;20051;-78
2022/02/03 03:39:12;;;;;;;7.30;5.53;;;;;;;5.38;83.97;97222.16;5119048;28;20047;-79
2022/02/03 03:41:44;;;;;;;8.57;6.60;;;;;;;5.39;83.35;97210.03;5118668;28;20070;-76
2022/02/03 03:44:19;;;;;;;8.18;5.70;;;;;;;5.42;83.53;97215.72;5118504;28;20054;-78
2022/02/03 03:46:48;;;;;;;10.80;7.43;;;;;;;5.44;83.39;97218.19;5118286;28;20048;-78
2022/02/03 03:49:37;;;;;;;8.77;6.25;;;;;;;5.50;83.73;97217.66;5118516;28;20051;-79
2022/02/03 03:52:10;;;;;;;7.90;6.20;;;;;;;5.51;83.50;97214.09;5118072;28;20066;-79
2022/02/03 03:54:43;;;;;;;;;;;;;;;5.53;83.71;97207.03;5121257;28;20077;-78
2022/02/03 03:57:23;;;;;;;6.97;4.78;;;;;;;5.49;83.04;97205.69;5119517;28;19924;-81
2022/02/03 04:00:24;;;;;;;7.85;5.68;;;;;;;5.49;83.08;97206.50;5121207;28;20096;-78
2022/02/03 04:32:33;;;;;;;5.80;4.50;;;;;;;5.66;83.67;97201.59;5065998;28;20063;-78
2022/02/03 04:38:21;;;;;;;6.88;5.07;;;;;;;5.71;83.20;97192.47;5120954;28;20520;-78
2022/02/03 04:44:43;;;;;;;5.20;4.70;;;;;;;5.78;83.39;97188.38;5121677;28;20425;-79
2022/02/03 04:59:35;;;;;;;6.85;4.97;;;;;;;5.94;83.50;97174.91;5108427;28;20471;-80
2022/02/03 05:02:26;;;;;;;7.93;4.40;;;;;;;6.02;83.71;97171.63;5120766;28;20428;-81
2022/02/03 05:05:14;;;;;;;5.05;4.55;;;;;;;6.09;83.62;97156.34;5123342;28;20052;-80
2022/02/03 05:08:20;;;;;;;4.85;4.28;;;;;;;6.16;83.96;97160.00;5119574;28;20059;-80
2022/02/03 05:11:15;;;;;;;6.97;4.40;;;;;;;6.23;83.58;97152.50;5120606;28;20043;-76
2022/02/03 05:17:22;;;;;;;6.07;4.60;;;;;;;6.32;83.01;97162.00;5063640;28;20053;-81
2022/02/03 05:20:21;;;;;;;5.47;4.55;;;;;;;6.30;82.77;97162.16;5120988;28;20054;-81
2022/02/03 05:26:19;;;;;;;6.50;4.80;;;;;;;6.22;82.67;97161.22;5119593;28;20059;-77
2022/02/03 05:32:34;;;;;;;6.03;5.27;;;;;;;6.07;82.95;97147.91;5121129;28;20055;-78
2022/02/03 05:41:55;;;;;;;6.93;5.78;;;;;;;6.01;83.00;97154.44;5120841;28;20276;-77
2022/02/03 05:44:19;;;;;;;7.63;5.28;;;;;;;5.94;83.58;97136.06;5119935;28;20515;-81
2022/02/03 05:47:05;;;;;;;7.47;5.00;;;;;;;5.96;83.73;97136.75;5120362;28;20154;-77
2022/02/03 06:01:15;;;;;;;14.23;10.20;;;;;;;6.00;82.70;97123.53;5119595;28;20100;-78
2022/02/03 06:06:50;;;;;;;15.25;10.88;;;;;;;5.91;82.71;97125.16;5081901;28;20052;-81
2022/02/03 06:09:27;;;;;;;15.30;10.73;;;;;;;5.86;83.13;97125.56;5122480;28;20120;-79
2022/02/03 06:14:52;;;;;;;16.05;11.10;;;;;;;5.83;83.00;97114.66;5122073;28;20057;-78
2022/02/03 06:17:31;;;;;;;15.93;10.88;;;;;;;5.83;82.86;97117.25;5121902;28;20067;-78
2022/02/03 06:22:49;;;;;;;17.67;12.05;;;;;;;5.83;82.76;97114.66;5122698;28;20070;-80
2022/02/03 06:28:02;;;;;;;13.95;9.73;;;;;;;5.86;82.89;97114.38;5121096;28;20549;-77
2022/02/03 06:30:30;;;;;;;16.58;11.57;;;;;;;5.87;83.21;97103.88;5115693;28;20043;-77
2022/02/03 06:32:59;;;;;;;17.00;11.45;;;;;;;5.91;83.12;97113.00;5115727;28;20056;-75
2022/02/03 06:35:26;;;;;;;14.73;9.50;;;;;;;5.96;83.04;97105.66;5115698;28;20132;-76
2022/02/03 06:37:54;;;;;;;10.85;8.02;;;;;;;6.00;83.09;97103.63;5112947;28;20048;-76
2022/02/03 06:40:21;;;;;;;11.10;7.57;;;;;;;6.04;82.96;97106.75;5102579;28;20055;-76
2022/02/03 06:42:54;;;;;;;12.20;7.70;;;;;;;6.06;82.73;97100.47;5104681;28;20138;-76
2022/02/03 06:45:33;;;;;;;14.73;9.23;;;;;;;6.08;82.36;97108.09;5114884;28;20050;-76
2022/02/03 06:48:06;;;;;;;12.32;8.40;;;;;;;6.12;82.41;97107.69;5096543;28;20541;-75
2022/02/03 06:50:39;;;;;;;10.43;7.57;;;;;;;6.12;82.48;97106.84;5094443;28;20059;-75
2022/02/03 06:53:11;;;;;;;10.60;7.80;;;;;;;6.12;82.19;97109.44;5093691;28;20502;-76
2022/02/03 06:55:45;;;;;;;12.70;9.02;;;;;;;6.09;82.51;97110.53;5103850;28;20059;-74
2022/02/03 06:58:19;;;;;;;13.43;9.50;;;;;;;6.09;82.23;97105.34;5114155;28;20047;-76
2022/02/03 07:00:57;;;;;;;13.35;8.88;;;;;;;6.12;82.53;97110.28;5113730;28;20047;-78
2022/02/03 07:03:33;;;;;;;12.85;8.40;;;;;;;6.15;82.43;97106.59;5100056;28;20044;-75
2022/02/03 07:06:00;;;;;;;12.70;8.63;;;;;;;6.16;82.45;97106.41;5106421;28;20471;-76
2022/02/03 07:08:30;;;;;;;14.10;8.18;;;;;;;6.19;82.19;97111.34;5101226;28;20055;-77
2022/02/03 07:10:58;;;;;;;12.15;7.80;;;;;;;6.23;82.33;97109.28;5113387;28;20093;-75
2022/02/03 07:13:26;;;;;;;10.57;7.70;;;;;;;6.24;82.06;97102.31;5113386;28;20497;-75
2022/02/03 07:15:54;;;;;;;10.38;7.57;;;;;;;6.23;82.14;97108.44;5113320;28;20562;-75
2022/02/03 07:18:21;;;;;;;9.57;7.57;;;;;;;6.25;82.25;97109.13;5113208;28;20062;-74
2022/02/03 07:20:50;;;;;;;9.35;6.72;;;;;;;6.28;82.07;97111.44;5111271;28;20043;-76
2022/02/03 07:23:18;;;;;;;8.05;5.95;;;;;;;6.30;82.01;97109.53;5093242;28;20059;-76
2022/02/03 07:25:46;;;;;;;10.07;7.22;;;;;;;6.32;82.00;97110.19;5092615;28;20461;-75
2022/02/03 07:28:13;;;;;;;11.93;7.50;;;;;;;6.34;81.81;97092.72;5092904;28;20520;-74
2022/02/03 07:30:41;;;;;;;9.00;6.93;;;;;;;6.36;81.86;97088.22;5093334;28;20048;-76
2022/02/03 07:33:09;;;;;;;11.55;8.50;;;;;;;6.38;81.89;97086.28;5092933;28;20044;-77
2022/02/03 07:35:37;;;;;;;8.63;7.00;;;;;;;6.40;82.15;97090.38;5092487;28;20105;-77
2022/02/03 07:38:08;;;;;;;14.48;8.55;;;;;;;6.42;82.03;97090.25;5092260;28;20516;-77
2022/02/03 07:40:36;;;;;;;12.55;8.30;;;;;;;6.45;81.95;97092.56;5092397;28;20047;-77
2022/02/03 07:43:08;;;;;;;10.07;7.90;;;;;;;6.50;81.77;97086.94;5092603;28;20048;-77
2022/02/03 07:45:36;;;;;;;10.27;7.75;;;;;;;6.52;81.83;97083.25;5092435;28;20498;-76
2022/02/03 07:48:04;;;;;;;10.68;7.63;;;;;;;6.57;81.88;97086.22;5095882;28;20083;-77
2022/02/03 07:50:32;;;;;;;11.57;7.65;;;;;;;6.59;81.56;97092.06;5096264;28;20044;-77
2022/02/03 07:52:59;;;;;;;11.48;8.27;;;;;;;6.62;81.92;97093.53;5095065;28;20059;-76
2022/02/03 07:55:28;;;;;;;12.18;7.03;;;;;;;6.64;81.96;97094.22;5095153;28;20059;-78
2022/02/03 07:57:56;;;;;;;14.82;9.43;;;;;;;6.66;81.49;97099.28;5102445;28;20043;-77
2022/02/03 08:00:25;;;;;;;11.63;7.95;;;;;;;6.67;81.23;97083.56;5115923;28;20116;-78
2022/02/03 08:03:12;;;;;;;11.18;6.93;;;;;;;6.68;81.35;97085.19;5116280;28;20048;-76
2022/02/03 08:05:41;;;;;;;12.50;8.43;;;;;;;6.70;81.10;97087.66;5115915;28;20101;-76
2022/02/03 08:08:17;;;;;;;17.88;10.27;;;;;;;6.70;81.42;97087.66;5114637;28;20048;-75
2022/02/03 08:10:50;;;;;;;11.52;8.38;;;;;;;6.71;81.22;97079.75;5115393;28;20397;-78
2022/02/03 08:13:22;;;;;;;15.60;8.82;;;;;;;6.73;81.03;97071.78;5116714;28;20047;-78
2022/02/03 08:15:57;;;;;;;17.35;8.02;;;;;;;6.71;81.08;97066.78;5117427;22;20051;-76
2022/02/03 08:18:24;;;;;;;19.05;8.75;;;;;;;6.73;81.09;97058.84;5072522;28;20056;-76
2022/02/03 08:20:58;;;;;;;14.77;8.48;;;;;;;6.72;80.84;97057.22;5071655;28;20048;-76
2022/02/03 08:23:53;;;;;;;12.73;9.32;;;;;;;6.73;80.99;97057.03;5071545;28;20110;-77
2022/02/03 08:26:37;;;;;;;13.23;8.18;;;;;;;6.71;81.02;97050.38;5071106;28;20096;-76
2022/02/03 08:29:29;;;;;;;14.07;8.13;;;;;;;6.72;81.14;97044.25;5071686;28;20049;-76
2022/02/03 08:32:06;;;;;;;10.93;7.43;;;;;;;6.74;80.77;97037.16;5071788;28;20051;-76
2022/02/03 08:34:42;;;;;;;12.98;7.40;;;;;;;6.74;80.75;97037.94;5071685;28;20048;-77
2022/02/03 08:37:10;;;;;;;15.05;7.70;;;;;;;6.77;80.92;97042.03;5072159;28;20059;-77
2022/02/03 08:39:50;;;;;;;21.10;10.40;;;;;;;6.79;80.82;97042.69;5073784;28;20469;-76
2022/02/03 08:42:19;;;;;;;20.83;11.13;;;;;;;6.81;80.95;97051.13;5073233;28;20629;-76
2022/02/03 08:44:49;;;;;;;12.88;8.70;;;;;;;6.84;80.81;97048.25;5071547;28;20079;-76
2022/02/03 08:47:16;;;;;;;13.50;8.15;;;;;;;6.87;80.80;97047.97;5062434;28;20107;-76
2022/02/03 08:49:46;;;;;;;11.73;7.85;;;;;;;6.89;80.55;97053.00;5051371;28;20060;-76
2022/02/03 08:52:17;;;;;;;11.20;8.02;;;;;;;6.90;80.42;97047.66;5051405;28;20710;-75
2022/02/03 08:54:58;;;;;;;10.63;7.28;;;;;;;6.94;80.67;97049.00;5051506;28;20400;-76
2022/02/03 08:57:38;;;;;;;9.25;7.18;;;;;;;7.00;80.45;97052.78;5054156;28;20048;-76
2022/02/03 09:00:37;;;;;;;7.47;5.80;;;;;;;7.03;80.10;97062.06;5072537;28;20048;-76
2022/02/03 09:29:40;;;;;;;7.85;4.82;;;;;;;7.23;79.63;97022.81;5075036;28;20056;-76
2022/02/03 09:40:50;;;;;;;6.22;4.05;;;;;;;7.36;79.35;96993.88;5039915;28;20421;-76
2022/02/03 09:52:30;;;;;;;5.57;3.42;;;;;;;7.50;79.12;96984.75;5035785;28;20054;-77
2022/02/03 09:57:59;;;;;;;22.95;6.35;;;;;;;7.59;78.48;96989.00;5078740;28;20154;-77
2022/02/03 10:00:31;;;;;;;12.23;4.75;;;;;;;7.62;78.11;97001.69;5092698;28;20052;-76
2022/02/03 10:03:01;;;;;;;8.95;4.57;;;;;;;7.67;78.56;96992.63;5095008;28;20055;-76
2022/02/03 10:05:35;;;;;;;6.25;3.72;;;;;;;7.70;78.22;96997.53;5081836;28;20048;-76
2022/02/03 10:08:04;;;;;;;6.55;4.57;;;;;;;7.74;78.30;96989.28;5077313;28;20052;-76
2022/02/03 10:10:46;;;;;;;5.85;3.97;;;;;;;7.78;78.00;96964.63;5077149;28;20056;-76
2022/02/03 10:13:18;;;;;;;45.45;10.50;;;;;;;7.80;77.58;96972.22;5077091;28;20048;-76
2022/02/03 10:15:48;;;;;;;14.23;5.70;;;;;;;7.83;77.75;96988.34;5078937;28;20049;-76
2022/02/03 10:18:26;;;;;;;20.08;6.75;;;;;;;7.88;77.48;96968.88;5086634;28;20439;-77
2022/02/03 10:20:56;;;;;;;6.68;2.90;;;;;;;7.92;77.00;96970.19;5088605;28;20057;-77
2022/02/03 10:23:24;;;;;;;8.75;2.78;;;;;;;7.96;77.43;96961.94;5087740;28;20040;-76
2022/02/03 10:25:56;;;;;;;2.53;2.03;;;;;;;8.00;76.87;96962.41;5077899;28;20049;-76
2022/02/03 10:28:26;;;;;;;1.88;1.35;;;;;;;8.02;76.28;96955.28;5075342;28;20084;-76
2022/02/03 10:31:00;;;;;;;1.20;1.10;;;;;;;8.05;76.82;96939.41;5075578;28;20148;-76
2022/02/03 10:33:33;;;;;;;5.25;1.98;;;;;;;8.10;76.12;96936.31;5073659;28;20521;-76
2022/02/03 10:36:09;;;;;;;4.00;1.75;;;;;;;8.11;77.03;96933.56;5073271;28;20052;-76
2022/02/03 10:41:41;;;;;;;4.68;2.15;;;;;;;8.11;75.84;96943.97;5073374;28;20449;-76
2022/02/03 10:44:39;;;;;;;3.30;2.55;;;;;;;8.14;75.98;96941.03;5075274;28;20422;-76
2022/02/03 10:50:16;;;;;;;2.50;2.30;;;;;;;8.22;76.68;96946.28;5067575;28;20051;-76
2022/02/03 10:58:48;;;;;;;4.03;3.28;;;;;;;8.23;76.81;96921.91;5048419;28;20060;-76
2022/02/03 11:04:31;;;;;;;3.72;2.72;;;;;;;8.24;76.32;96922.72;5055671;28;20102;-76
2022/02/03 11:07:04;;;;;;;7.57;3.35;;;;;;;8.18;76.25;96908.56;5072942;28;20395;-75
2022/02/03 11:09:53;;;;;;;33.80;7.05;;;;;;;8.14;76.25;96896.88;5074557;28;20087;-76
2022/02/03 11:12:42;;;;;;;5.47;3.05;;;;;;;8.17;75.77;96875.75;5074102;28;20075;-75
2022/02/03 11:15:10;;;;;;;4.78;3.08;;;;;;;8.23;76.25;96871.72;5074484;28;20056;-76
2022/02/03 11:17:45;;;;;;;3.20;2.80;;;;;;;8.36;75.33;96859.06;5072988;28;20084;-76
2022/02/03 11:20:13;;;;;;;3.67;3.10;;;;;;;8.51;75.00;96854.06;5073021;28;20052;-76
2022/02/03 11:22:50;;;;;;;2.90;2.25;;;;;;;8.65;74.24;96840.41;5073077;28;20056;-76
2022/02/03 11:25:31;;;;;;;3.05;2.08;;;;;;;8.73;74.37;96838.78;5073186;28;20059;-76
2022/02/03 11:28:19;;;;;;;1.42;1.30;;;;;;;8.87;73.09;96819.91;5072792;28;20079;-77
2022/02/03 11:33:53;;;;;;;2.65;2.15;;;;;;;9.68;70.29;96791.94;5069410;28;20431;-76
2022/02/03 11:40:09;;;;;;;3.72;2.00;;;;;;;10.52;67.96;96773.81;5057466;28;20059;-77
2022/02/03 11:43:04;;;;;;;6.78;2.53;;;;;;;10.78;67.09;96783.00;5072589;28;20047;-76
2022/02/03 11:45:56;;;;;;;43.58;6.65;;;;;;;10.71;66.75;96788.13;5073232;28;20056;-77
2022/02/03 11:48:57;;;;;;;4.57;2.33;;;;;;;10.48;66.46;96764.72;5072860;28;20449;-77
2022/02/03 11:54:51;;;;;;;5.72;2.72;;;;;;;10.42;66.81;96765.41;5067468;28;20067;-77
2022/02/03 11:57:56;;;;;;;17.70;3.45;;;;;;;10.41;66.10;96761.19;5072713;28;20044;-76
2022/02/03 12:01:01;;;;;;;7.43;2.85;;;;;;;10.37;65.92;96745.06;5073658;28;20060;-76
2022/02/03 12:04:12;;;;;;;2.25;1.92;;;;;;;10.30;66.58;96767.63;5073376;28;20055;-76
2022/02/03 12:18:09;;;;;;;3.55;2.17;;;;;;;9.76;68.44;96729.38;5072309;28;20052;-77
2022/02/03 12:20:45;;;;;;;4.50;2.00;;;;;;;9.84;68.21;96721.53;5072418;28;20522;-77
2022/02/03 12:23:37;;;;;;;2.13;1.92;;;;;;;10.00;66.83;96711.97;5072768;28;20040;-77
2022/02/03 12:26:12;;;;;;;6.32;3.88;;;;;;;10.10;67.45;96708.13;5072730;28;20048;-76
2022/02/03 12:28:49;;;;;;;2.88;2.15;;;;;;;10.06;66.63;96686.00;5072706;28;20048;-76
2022/02/03 12:37:11;;;;;;;14.88;4.05;;;;;;;10.30;67.52;96665.94;5072479;28;20057;-77
2022/02/03 12:39:48;;;;;;;4.13;2.47;;;;;;;10.34;66.48;96661.16;5075907;28;20057;-77
2022/02/03 12:42:27;;;;;;;4.38;3.47;;;;;;;10.28;67.62;96660.06;5076843;28;20097;-77
2022/02/03 12:45:13;;;;;;;3.03;2.60;;;;;;;10.16;67.49;96661.47;5076544;28;20055;-77
2022/02/03 12:47:42;;;;;;;4.57;2.80;;;;;;;10.08;68.78;96662.38;5075571;28;20048;-77
2022/02/03 12:50:22;;;;;;;3.80;3.13;;;;;;;10.04;68.00;96653.28;5075971;28;20056;-77
2022/02/03 12:52:50;;;;;;;2.92;2.63;;;;;;;9.96;67.66;96653.38;5076104;28;20071;-76
2022/02/03 12:55:28;;;;;;;4.25;2.42;;;;;;;9.83;67.61;96673.00;5076255;28;20063;-76
2022/02/03 12:57:57;;;;;;;3.92;3.03;;;;;;;9.79;69.01;96669.13;5075804;28;20054;-76
2022/02/03 13:00:31;;;;;;;5.25;2.50;;;;;;;9.77;69.93;96668.47;5076263;28;20048;-78
2022/02/03 13:03:19;;;;;;;6.65;3.13;;;;;;;9.75;69.91;96652.25;5077546;28;20090;-77
2022/02/03 13:05:56;;;;;;;3.22;2.78;;;;;;;9.72;70.35;96649.97;5078529;28;20139;-77
2022/02/03 13:08:35;;;;;;;3.70;3.00;;;;;;;9.68;68.88;96643.47;5078872;28;20052;-77
2022/02/03 13:11:08;;;;;;;4.00;3.60;;;;;;;9.65;70.34;96641.25;5078255;28;20056;-77
2022/02/03 13:13:41;;;;;;;6.45;3.17;;;;;;;9.60;69.40;96635.72;5078714;28;20134;-77
2022/02/03 13:16:09;;;;;;;6.22;4.13;;;;;;;9.56;70.14;96637.88;5077101;28;20048;-77
2022/02/03 13:18:44;;;;;;;5.03;3.53;;;;;;;9.53;69.09;96633.00;5077240;28;20052;-76
2022/02/03 13:21:29;;;;;;;4.38;3.60;;;;;;;9.52;70.21;96631.41;5076772;28;20048;-77
2022/02/03 13:24:03;;;;;;;5.15;3.33;;;;;;;9.52;68.02;96630.59;5076782;28;20040;-77
2022/02/03 13:26:34;;;;;;;4.15;3.47;;;;;;;9.48;68.38;96623.13;5076348;28;20049;-76
2022/02/03 13:29:06;;;;;;;6.03;3.60;;;;;;;9.51;69.97;96621.97;5076313;28;20090;-77
2022/02/03 13:31:46;;;;;;;5.20;3.83;;;;;;;9.53;70.46;96617.38;5076715;28;20048;-77
2022/02/03 13:34:29;;;;;;;5.25;3.58;;;;;;;9.53;68.94;96617.38;5077759;28;20098;-76
2022/02/03 13:37:12;;;;;;;5.53;3.40;;;;;;;9.53;69.04;96621.78;5076926;28;20506;-77
2022/02/03 13:39:44;;;;;;;8.52;4.03;;;;;;;9.52;68.96;96607.16;5076348;28;20052;-75
2022/02/03 13:42:13;;;;;;;8.52;4.35;;;;;;;9.55;69.12;96593.78;5076129;28;20053;-77
2022/02/03 13:44:41;;;;;;;5.30;3.97;;;;;;;9.57;68.99;96616.06;5075598;28;20068;-76
2022/02/03 13:47:22;;;;;;;7.65;4.50;;;;;;;9.61;70.68;96614.72;5075470;28;20059;-77
2022/02/03 13:50:10;;;;;;;8.27;4.22;;;;;;;9.64;70.12;96619.59;5074928;28;20143;-77
2022/02/03 13:52:46;;;;;;;8.52;3.92;;;;;;;9.66;70.30;96619.41;5075479;28;20723;-76
2022/02/03 14:15:14;;;;;;;5.30;4.80;;;;;;;9.48;71.09;96563.22;5074909;28;20051;-77
2022/02/03 14:18:17;;;;;;;5.55;5.05;;;;;;;9.45;70.89;96571.41;5131195;22;20052;-80
2022/02/03 14:20:49;;;;;;;5.65;5.10;;;;;;;9.38;70.31;96573.09;5099459;28;20055;-77
2022/02/03 14:28:49;;;;;;;6.95;6.25;;;;;;;9.34;72.25;96571.00;5099080;28;20110;-77
2022/02/03 14:31:17;;;;;;;7.32;6.63;;;;;;;9.34;72.04;96573.63;5100220;28;20056;-75
2022/02/03 14:33:44;;;;;;;6.65;6.05;;;;;;;9.32;71.23;96558.16;5099389;28;20058;-78
2022/02/03 14:36:16;;;;;;;6.78;6.15;;;;;;;9.34;72.17;96555.41;5098139;28;20051;-76
2022/02/03 14:38:50;;;;;;;7.15;6.45;;;;;;;9.31;72.17;96546.13;5098562;28;20059;-76
2022/02/03 14:41:24;;;;;;;6.82;6.00;;;;;;;9.28;71.69;96559.50;5098645;28;20486;-76
2022/02/03 14:43:53;;;;;;;6.35;5.75;;;;;;;9.28;71.40;96557.69;5098528;28;20486;-76
2022/02/03 14:46:28;;;;;;;6.78;6.07;;;;;;;9.27;71.85;96550.88;5097449;28;20052;-79
2022/02/03 14:48:56;;;;;;;155.23;21.13;;;;;;;9.27;70.98;96547.44;5098261;28;20044;-77
2022/02/03 14:51:28;;;;;;;119.82;19.75;;;;;;;9.25;70.59;96541.63;5097889;28;20052;-77
2022/02/03 14:54:19;;;;;;;107.93;18.00;;;;;;;9.23;71.36;96543.59;5097831;28;20052;-77
2022/02/03 14:59:30;;;;;;;76.28;14.98;;;;;;;9.18;70.42;96546.72;5076146;28;20052;-75
2022/02/03 15:01:58;;;;;;;59.60;14.80;;;;;;;9.15;72.01;96546.25;5074223;28;20158;-75
2022/02/03 15:04:29;;;;;;;147.82;27.17;;;;;;;9.14;71.08;96542.84;5073108;28;20044;-75
2022/02/03 15:07:01;;;;;;;69.10;13.82;;;;;;;9.12;72.47;96550.03;5074653;28;20167;-77
2022/02/03 15:10:02;;;;;;;8.03;4.93;;;;;;;9.12;71.41;96546.59;5073556;28;20056;-77
2022/02/03 15:12:44;;;;;;;8.90;5.40;;;;;;;9.10;70.57;96553.78;5074767;28;20052;-75
2022/02/03 15:15:11;;;;;;;11.75;6.07;;;;;;;9.07;71.28;96536.69;5076445;28;20048;-76
2022/02/03 15:17:38;;;;;;;7.93;6.15;;;;;;;9.07;71.98;96534.09;5075903;28;20052;-76
2022/02/03 15:20:07;;;;;;;6.28;5.68;;;;;;;9.05;72.41;96541.25;5076627;28;20048;-76
2022/02/03 15:22:34;;;;;;;6.97;4.90;;;;;;;9.01;71.16;96524.41;5076847;28;20060;-77
2022/02/03 15:25:02;;;;;;;5.45;4.90;;;;;;;8.94;71.00;96526.06;5076862;28;20087;-76
2022/02/03 15:27:31;;;;;;;5.80;5.28;;;;;;;8.91;72.27;96508.22;5076415;28;20055;-76
2022/02/03 15:30:02;;;;;;;5.95;4.53;;;;;;;8.85;71.57;96496.69;5076056;28;20052;-76
2022/02/03 15:32:36;;;;;;;8.25;5.10;;;;;;;8.81;72.29;96498.84;5077154;28;20044;-79
2022/02/03 15:35:07;;;;;;;7.88;4.95;;;;;;;8.78;71.65;96493.97;5077142;28;20052;-76
2022/02/03 15:37:35;;;;;;;7.80;5.57;;;;;;;8.77;72.98;96507.19;5076243;28;20078;-76
2022/02/03 15:40:07;;;;;;;7.82;4.90;;;;;;;8.72;72.42;96484.25;5075865;28;20533;-76
2022/02/03 15:42:39;;;;;;;6.85;4.50;;;;;;;8.68;71.88;96483.00;5076014;28;20075;-77
2022/02/03 15:45:08;;;;;;;5.53;5.00;;;;;;;8.65;73.10;96494.53;5075654;28;20040;-77
2022/02/03 15:47:40;;;;;;;5.28;4.78;;;;;;;8.66;73.96;96503.97;5076285;28;20062;-77
2022/02/03 15:50:54;;;;;;;4.53;4.07;;;;;;;8.63;72.89;96483.50;5076959;28;20048;-77
2022/02/03 15:56:24;;;;;;;4.53;3.92;;;;;;;8.52;72.54;96496.91;5075348;28;20055;-77
2022/02/03 16:18:31;;;;;;;6.65;4.50;;;;;;;8.30;74.18;96472.47;5097802;28;20052;-77
2022/02/03 16:21:05;;;;;;;6.38;4.25;;;;;;;8.28;73.82;96473.59;5097916;28;20092;-77
2022/02/03 16:23:57;;;;;;;5.03;4.53;;;;;;;8.25;74.48;96485.97;5097334;28;20052;-77
2022/02/03 16:26:54;;;;;;;5.45;4.95;;;;;;;8.21;75.21;96471.69;5096524;28;20048;-76
2022/02/03 16:50:19;;;;;;;5.20;4.70;;;;;;;8.13;74.98;96471.72;5091632;28;20051;-77
2022/02/03 16:54:55;;;;;;;5.03;4.55;;;;;;;8.06;76.26;96452.59;5071215;28;20044;-76
2022/02/03 16:57:25;;;;;;;5.63;4.72;;;;;;;8.04;75.43;96467.53;5093680;28;20441;-76
2022/02/03 16:59:58;;;;;;;7.85;5.40;;;;;;;8.00;75.33;96472.28;5076808;28;20525;-78
2022/02/03 17:02:45;;;;;;;7.05;5.95;;;;;;;8.00;76.26;96477.47;5076589;28;20048;-77
2022/02/03 17:05:14;;;;;;;6.72;5.70;;;;;;;8.00;76.96;96467.09;5076180;28;20040;-77
2022/02/03 17:07:42;;;;;;;6.15;5.43;;;;;;;8.01;76.13;96444.50;5075876;28;20044;-75
2022/02/03 17:10:10;;;;;;;6.72;5.30;;;;;;;7.97;76.02;96483.00;5081977;28;20060;-81
2022/02/03 17:12:37;;;;;;;7.18;5.20;;;;;;;7.95;75.55;96486.75;5080621;28;20047;-81
2022/02/03 17:15:06;;;;;;;5.93;5.10;;;;;;;7.92;75.41;96477.50;5078577;28;20048;-78
2022/02/03 17:17:34;;;;;;;7.18;5.97;;;;;;;7.92;75.87;96472.31;5077672;28;20056;-77
2022/02/03 17:20:02;;;;;;;4.88;4.38;;;;;;;7.90;75.48;96463.88;5076196;28;20048;-84
2022/02/03 17:22:35;;;;;;;6.28;5.22;;;;;;;7.88;75.42;96470.22;5079077;28;20080;-81
2022/02/03 17:25:08;;;;;;;7.80;5.93;;;;;;;7.86;75.69;96470.38;5074480;28;20037;-78
2022/02/03 17:27:37;;;;;;;6.60;5.20;;;;;;;7.88;76.22;96485.81;5076015;28;20052;-80
2022/02/03 17:30:10;;;;;;;5.68;5.07;;;;;;;7.87;76.02;96487.59;5076097;28;20083;-80
2022/02/03 18:03:48;;;;;;;7.85;5.18;;;;;;;7.71;76.61;96474.66;5077273;28;20049;-82
2022/02/03 18:06:56;;;;;;;7.10;5.07;;;;;;;7.71;75.96;96472.03;5076223;28;20062;-76
2022/02/03 18:09:34;;;;;;;6.00;5.20;;;;;;;7.74;76.98;96466.50;5076767;28;20071;-78
2022/02/03 18:18:06;;;;;;;6.32;5.63;;;;;;;7.76;76.73;96483.56;5076029;28;20057;-77
2022/02/03 18:26:44;;;;;;;8.93;6.07;;;;;;;7.81;77.18;96475.28;5075466;28;20106;-78
2022/02/03 18:37:29;;;;;;;14.20;8.90;;;;;;;7.86;77.51;96462.59;5075710;28;20110;-80
2022/02/03 18:50:59;;;;;;;8.70;7.35;;;;;;;7.83;78.32;96460.34;5074345;28;20580;-78
2022/02/03 18:53:32;;;;;;;8.20;6.70;;;;;;;7.83;78.81;96473.31;5076604;28;20063;-78
2022/02/03 18:56:07;;;;;;;9.55;7.93;;;;;;;7.84;78.54;96475.72;5076573;28;20052;-81
2022/02/03 18:58:43;;;;;;;13.07;8.82;;;;;;;7.82;78.62;96464.69;5076560;28;20049;-77
2022/02/03 19:01:31;;;;;;;8.15;6.90;;;;;;;7.81;77.33;96462.28;5076223;28;20060;-78
2022/02/03 19:09:52;;;;;;;9.70;7.95;;;;;;;7.82;77.79;96464.69;5076358;28;20056;-81
2022/02/03 19:24:04;;;;;;;9.18;7.50;;;;;;;7.76;76.81;96469.75;5043637;28;20070;-81